Terminal Aerodrome Forecast
Issued by NWS

Home | Current Version | Previous Version | Graphics & Text | Print | Product List | Glossary On
Versions: 1 2 3 4 5 6 7 8 9 10 11 12 13 14 15 16 17 18 19 20 21 22
501
FTUS43 KUNR 262320
TAFGCC
TAF
KGCC 262320Z 2700/2724 36007KT 1SM -SN BR BKN006 OVC012
     FM270300 35006KT 2SM -SHSN OVC003
     FM271100 32005KT 4SM BR OVC004
     FM271700 35012KT P6SM OVC025=

USA.gov is the U.S. government's official web portal to all federal, state and local government web resources and services.